sensor_id;sensor_type;location;lat;lon;timestamp;pressure;altitude;pressure_sealevel;temperature;humidity
42725;BME280;28369;44.046;23.014;2023-04-28T00:02:10;101534.41;;;14.02;38.70
42725;BME280;28369;44.046;23.014;2023-04-28T00:04:35;101467.16;;;13.53;39.04
42725;BME280;28369;44.046;23.014;2023-04-28T00:07:01;101475.56;;;13.79;38.51
42725;BME280;28369;44.046;23.014;2023-04-28T00:09:26;101479.38;;;13.65;38.74
42725;BME280;28369;44.046;23.014;2023-04-28T00:11:51;101297.53;;;12.65;38.58
42725;BME280;28369;44.046;23.014;2023-04-28T00:14:17;101562.25;;;14.27;38.40
42725;BME280;28369;44.046;23.014;2023-04-28T00:16:42;101498.22;;;14.03;38.41
42725;BME280;28369;44.046;23.014;2023-04-28T00:19:08;101547.28;;;14.38;38.32
42725;BME280;28369;44.046;23.014;2023-04-28T00:21:33;101359.50;;;13.24;38.17
42725;BME280;28369;44.046;23.014;2023-04-28T00:23:59;101528.84;;;14.26;38.53
42725;BME280;28369;44.046;23.014;2023-04-28T00:26:24;101522.34;;;14.09;38.58
42725;BME280;28369;44.046;23.014;2023-04-28T00:28:50;101497.53;;;13.79;39.20
42725;BME280;28369;44.046;23.014;2023-04-28T00:31:15;101475.66;;;13.77;38.89
42725;BME280;28369;44.046;23.014;2023-04-28T00:33:42;101380.84;;;13.00;39.43
42725;BME280;28369;44.046;23.014;2023-04-28T00:36:08;101265.47;;;11.82;40.05
42725;BME280;28369;44.046;23.014;2023-04-28T00:38:34;101486.78;;;13.39;39.81
42725;BME280;28369;44.046;23.014;2023-04-28T00:41:00;101595.97;;;13.93;39.83
42725;BME280;28369;44.046;23.014;2023-04-28T00:43:26;101516.41;;;13.54;39.68
42725;BME280;28369;44.046;23.014;2023-04-28T00:45:51;101451.53;;;13.28;39.36
42725;BME280;28369;44.046;23.014;2023-04-28T00:48:18;101592.25;;;14.16;39.65
42725;BME280;28369;44.046;23.014;2023-04-28T00:50:44;101590.38;;;14.07;39.60
42725;BME280;28369;44.046;23.014;2023-04-28T00:53:11;101586.00;;;14.17;39.23
42725;BME280;28369;44.046;23.014;2023-04-28T00:55:37;100969.97;;;10.23;39.46
42725;BME280;28369;44.046;23.014;2023-04-28T00:58:04;101551.22;;;13.80;39.75
42725;BME280;28369;44.046;23.014;2023-04-28T01:00:30;101512.22;;;13.51;39.66
42725;BME280;28369;44.046;23.014;2023-04-28T01:02:56;101435.91;;;13.04;39.76
42725;BME280;28369;44.046;23.014;2023-04-28T01:05:24;101605.13;;;13.89;40.06
42725;BME280;28369;44.046;23.014;2023-04-28T01:07:50;100992.00;;;9.86;40.02
42725;BME280;28369;44.046;23.014;2023-04-28T01:10:16;101602.34;;;13.90;40.16
42725;BME280;28369;44.046;23.014;2023-04-28T01:12:41;101528.22;;;13.38;40.18
42725;BME280;28369;44.046;23.014;2023-04-28T01:15:14;101594.66;;;13.66;40.12
42725;BME280;28369;44.046;23.014;2023-04-28T01:17:40;101442.81;;;12.73;40.08
42725;BME280;28369;44.046;23.014;2023-04-28T01:20:06;101538.25;;;13.56;39.86
42725;BME280;28369;44.046;23.014;2023-04-28T01:22:32;101594.38;;;14.02;40.02
42725;BME280;28369;44.046;23.014;2023-04-28T01:24:57;101547.41;;;13.73;39.95
42725;BME280;28369;44.046;23.014;2023-04-28T01:27:24;101424.88;;;12.99;40.03
42725;BME280;28369;44.046;23.014;2023-04-28T01:29:50;101623.72;;;14.20;40.25
42725;BME280;28369;44.046;23.014;2023-04-28T01:32:15;101592.13;;;14.18;40.22
42725;BME280;28369;44.046;23.014;2023-04-28T01:34:41;101380.22;;;12.75;40.21
42725;BME280;28369;44.046;23.014;2023-04-28T01:37:06;101442.22;;;13.13;40.40
42725;BME280;28369;44.046;23.014;2023-04-28T01:39:32;101653.72;;;14.30;40.25
42725;BME280;28369;44.046;23.014;2023-04-28T01:41:59;101572.72;;;13.87;40.37
42725;BME280;28369;44.046;23.014;2023-04-28T01:44:24;101627.03;;;14.12;40.70
42725;BME280;28369;44.046;23.014;2023-04-28T01:46:50;101653.16;;;14.26;40.48
42725;BME280;28369;44.046;23.014;2023-04-28T01:49:15;101633.09;;;13.91;41.01
42725;BME280;28369;44.046;23.014;2023-04-28T01:51:41;101680.66;;;14.03;40.94
42725;BME280;28369;44.046;23.014;2023-04-28T01:54:07;101545.72;;;13.51;40.83
42725;BME280;28369;44.046;23.014;2023-04-28T01:56:32;101629.38;;;13.94;40.90
42725;BME280;28369;44.046;23.014;2023-04-28T01:58:58;101630.34;;;13.60;41.57
42725;BME280;28369;44.046;23.014;2023-04-28T02:01:23;101623.91;;;13.30;42.30
42725;BME280;28369;44.046;23.014;2023-04-28T02:03:48;101631.72;;;13.21;42.62
42725;BME280;28369;44.046;23.014;2023-04-28T02:06:14;101560.09;;;12.80;42.57
42725;BME280;28369;44.046;23.014;2023-04-28T02:08:40;101515.75;;;12.62;42.46
42725;BME280;28369;44.046;23.014;2023-04-28T02:11:05;101669.03;;;13.50;42.40
42725;BME280;28369;44.046;23.014;2023-04-28T02:13:31;101466.13;;;12.22;42.25
42725;BME280;28369;44.046;23.014;2023-04-28T02:15:59;101623.53;;;13.24;42.16
42725;BME280;28369;44.046;23.014;2023-04-28T02:18:25;101580.47;;;13.12;41.85
42725;BME280;28369;44.046;23.014;2023-04-28T02:20:51;101645.50;;;13.47;42.17
42725;BME280;28369;44.046;23.014;2023-04-28T02:23:16;101601.13;;;13.07;42.06
42725;BME280;28369;44.046;23.014;2023-04-28T02:25:42;101515.81;;;12.04;42.91
42725;BME280;28369;44.046;23.014;2023-04-28T02:28:07;101664.09;;;12.66;43.71
42725;BME280;28369;44.046;23.014;2023-04-28T02:30:32;101649.44;;;12.15;44.65
42725;BME280;28369;44.046;23.014;2023-04-28T02:32:58;101466.81;;;10.58;45.49
42725;BME280;28369;44.046;23.014;2023-04-28T02:35:23;101662.06;;;11.99;44.74
42725;BME280;28369;44.046;23.014;2023-04-28T02:37:49;101431.72;;;10.20;45.56
42725;BME280;28369;44.046;23.014;2023-04-28T02:40:15;101660.69;;;11.93;45.39
42725;BME280;28369;44.046;23.014;2023-04-28T02:42:40;101627.91;;;11.97;44.87
42725;BME280;28369;44.046;23.014;2023-04-28T02:45:06;101655.06;;;12.10;45.08
42725;BME280;28369;44.046;23.014;2023-04-28T02:47:32;101641.19;;;11.71;45.49
42725;BME280;28369;44.046;23.014;2023-04-28T02:49:57;101474.34;;;10.63;45.72
42725;BME280;28369;44.046;23.014;2023-04-28T02:52:23;101582.16;;;11.26;46.04
42725;BME280;28369;44.046;23.014;2023-04-28T02:54:48;101629.59;;;11.74;45.88
42725;BME280;28369;44.046;23.014;2023-04-28T02:57:18;101665.88;;;11.70;46.16
42725;BME280;28369;44.046;23.014;2023-04-28T02:59:44;101646.69;;;11.68;46.15
42725;BME280;28369;44.046;23.014;2023-04-28T03:02:10;101684.34;;;11.95;46.00
42725;BME280;28369;44.046;23.014;2023-04-28T03:04:36;101639.66;;;11.56;46.06
42725;BME280;28369;44.046;23.014;2023-04-28T03:07:02;101707.22;;;11.81;46.70
42725;BME280;28369;44.046;23.014;2023-04-28T03:09:27;101678.19;;;11.70;46.68
42725;BME280;28369;44.046;23.014;2023-04-28T03:11:53;101505.16;;;10.74;46.22
42725;BME280;28369;44.046;23.014;2023-04-28T03:14:18;101676.50;;;11.69;46.77
42725;BME280;28369;44.046;23.014;2023-04-28T03:16:44;101686.31;;;11.67;46.79
42725;BME280;28369;44.046;23.014;2023-04-28T03:19:09;101608.00;;;11.20;46.88
42725;BME280;28369;44.046;23.014;2023-04-28T03:21:35;101529.00;;;10.96;46.37
42725;BME280;28369;44.046;23.014;2023-04-28T03:24:00;101626.56;;;11.67;46.14
42725;BME280;28369;44.046;23.014;2023-04-28T03:26:26;101638.38;;;11.86;45.89
42725;BME280;28369;44.046;23.014;2023-04-28T03:28:51;101454.34;;;10.73;45.63
42725;BME280;28369;44.046;23.014;2023-04-28T03:31:17;101474.19;;;11.14;45.26
42725;BME280;28369;44.046;23.014;2023-04-28T03:33:42;101661.22;;;12.22;45.18
42725;BME280;28369;44.046;23.014;2023-04-28T03:36:09;101705.97;;;12.82;44.62
42725;BME280;28369;44.046;23.014;2023-04-28T03:38:35;101560.97;;;12.00;43.97
42725;BME280;28369;44.046;23.014;2023-04-28T03:41:00;101475.94;;;11.27;44.26
42725;BME280;28369;44.046;23.014;2023-04-28T03:43:26;101331.03;;;10.07;44.78
42725;BME280;28369;44.046;23.014;2023-04-28T03:45:52;101652.34;;;12.23;44.91
42725;BME280;28369;44.046;23.014;2023-04-28T03:48:17;101714.63;;;13.29;43.31
42725;BME280;28369;44.046;23.014;2023-04-28T03:50:43;101689.69;;;13.89;41.87
42725;BME280;28369;44.046;23.014;2023-04-28T03:53:10;101673.94;;;13.98;41.17
42725;BME280;28369;44.046;23.014;2023-04-28T03:55:35;101716.72;;;14.99;39.73
42725;BME280;28369;44.046;23.014;2023-04-28T03:58:01;101693.78;;;15.50;38.71
42725;BME280;28369;44.046;23.014;2023-04-28T04:00:26;101674.06;;;16.03;37.46
42725;BME280;28369;44.046;23.014;2023-04-28T04:02:52;101652.72;;;16.15;36.79
42725;BME280;28369;44.046;23.014;2023-04-28T04:05:17;101703.94;;;16.35;36.48
42725;BME280;28369;44.046;23.014;2023-04-28T04:07:43;101756.13;;;16.83;36.55
42725;BME280;28369;44.046;23.014;2023-04-28T04:10:08;101756.13;;;16.83;36.22
42725;BME280;28369;44.046;23.014;2023-04-28T04:12:34;101487.19;;;15.00;36.27
42725;BME280;28369;44.046;23.014;2023-04-28T04:15:00;101331.75;;;14.32;36.17
42725;BME280;28369;44.046;23.014;2023-04-28T04:17:25;101424.53;;;14.60;36.21
42725;BME280;28369;44.046;23.014;2023-04-28T04:19:51;101757.81;;;16.16;37.28
42725;BME280;28369;44.046;23.014;2023-04-28T04:22:16;101718.56;;;15.80;37.33
42725;BME280;28369;44.046;23.014;2023-04-28T04:24:41;101705.19;;;16.11;36.83
42725;BME280;28369;44.046;23.014;2023-04-28T04:27:07;101671.59;;;15.51;37.22
42725;BME280;28369;44.046;23.014;2023-04-28T04:29:32;101750.53;;;16.86;36.31
42725;BME280;28369;44.046;23.014;2023-04-28T04:31:58;101692.00;;;16.68;36.22
42725;BME280;28369;44.046;23.014;2023-04-28T04:34:23;101575.44;;;16.37;35.44
42725;BME280;28369;44.046;23.014;2023-04-28T04:36:49;101709.88;;;18.95;33.45
42725;BME280;28369;44.046;23.014;2023-04-28T04:39:14;101627.91;;;18.89;32.24
42725;BME280;28369;44.046;23.014;2023-04-28T04:41:40;101762.53;;;19.36;32.95
42725;BME280;28369;44.046;23.014;2023-04-28T04:44:06;101749.63;;;20.25;31.54
42725;BME280;28369;44.046;23.014;2023-04-28T04:46:31;101760.50;;;20.73;31.15
42725;BME280;28369;44.046;23.014;2023-04-28T04:48:57;101759.59;;;21.62;30.34
42725;BME280;28369;44.046;23.014;2023-04-28T04:51:22;101795.09;;;22.18;29.57
42725;BME280;28369;44.046;23.014;2023-04-28T04:53:48;101544.28;;;21.26;28.64
42725;BME280;28369;44.046;23.014;2023-04-28T04:56:16;101555.66;;;21.74;28.38
42725;BME280;28369;44.046;23.014;2023-04-28T04:58:44;101767.00;;;23.28;27.70
42725;BME280;28369;44.046;23.014;2023-04-28T05:01:10;101527.56;;;22.23;27.44
42725;BME280;28369;44.046;23.014;2023-04-28T05:03:35;101724.63;;;21.95;28.99
42725;BME280;28369;44.046;23.014;2023-04-28T05:06:01;101741.28;;;20.53;30.66
42725;BME280;28369;44.046;23.014;2023-04-28T05:08:27;101768.41;;;19.82;31.61
42725;BME280;28369;44.046;23.014;2023-04-28T05:10:53;101736.34;;;19.74;32.06
42725;BME280;28369;44.046;23.014;2023-04-28T05:13:18;101707.66;;;21.00;30.57
42725;BME280;28369;44.046;23.014;2023-04-28T05:15:44;101736.41;;;19.82;31.71
42725;BME280;28369;44.046;23.014;2023-04-28T05:18:09;101560.28;;;18.56;32.53
42725;BME280;28369;44.046;23.014;2023-04-28T05:20:36;101740.75;;;19.49;32.09
42725;BME280;28369;44.046;23.014;2023-04-28T05:23:02;101710.06;;;19.79;31.47
42725;BME280;28369;44.046;23.014;2023-04-28T05:25:27;101762.81;;;20.51;30.77
42725;BME280;28369;44.046;23.014;2023-04-28T05:27:54;101750.91;;;19.45;31.71
42725;BME280;28369;44.046;23.014;2023-04-28T05:30:20;101757.81;;;20.98;30.26
42725;BME280;28369;44.046;23.014;2023-04-28T05:32:45;101776.88;;;20.70;30.60
42725;BME280;28369;44.046;23.014;2023-04-28T05:35:11;101773.22;;;21.35;30.77
42725;BME280;28369;44.046;23.014;2023-04-28T05:37:36;101580.00;;;18.37;30.97
42725;BME280;28369;44.046;23.014;2023-04-28T05:40:02;101611.09;;;19.48;29.86
42725;BME280;28369;44.046;23.014;2023-04-28T05:42:28;101742.44;;;19.15;31.82
42725;BME280;28369;44.046;23.014;2023-04-28T05:44:54;101531.16;;;18.20;31.93
42725;BME280;28369;44.046;23.014;2023-04-28T05:47:19;101734.66;;;18.70;33.18
42725;BME280;28369;44.046;23.014;2023-04-28T05:49:45;101713.34;;;17.61;35.57
42725;BME280;28369;44.046;23.014;2023-04-28T05:52:10;101643.06;;;16.14;36.30
42725;BME280;28369;44.046;23.014;2023-04-28T05:54:36;101794.69;;;16.87;37.16
42725;BME280;28369;44.046;23.014;2023-04-28T05:57:01;101741.63;;;16.38;37.29
42725;BME280;28369;44.046;23.014;2023-04-28T05:59:27;101503.81;;;15.51;36.37
42725;BME280;28369;44.046;23.014;2023-04-28T06:01:54;101652.78;;;16.62;36.58
42725;BME280;28369;44.046;23.014;2023-04-28T06:04:20;101798.72;;;17.86;35.88
42725;BME280;28369;44.046;23.014;2023-04-28T06:06:45;101726.69;;;17.98;35.41
42725;BME280;28369;44.046;23.014;2023-04-28T06:09:11;101594.38;;;17.45;35.67
42725;BME280;28369;44.046;23.014;2023-04-28T06:11:36;101739.31;;;18.31;34.70
42725;BME280;28369;44.046;23.014;2023-04-28T06:14:02;101811.84;;;18.43;35.22
42725;BME280;28369;44.046;23.014;2023-04-28T06:16:27;101790.06;;;18.30;35.55
42725;BME280;28369;44.046;23.014;2023-04-28T06:18:53;101791.75;;;18.49;34.08
42725;BME280;28369;44.046;23.014;2023-04-28T06:21:18;101758.09;;;17.38;34.23
42725;BME280;28369;44.046;23.014;2023-04-28T06:23:45;101530.69;;;16.52;33.98
42725;BME280;28369;44.046;23.014;2023-04-28T06:26:11;101758.28;;;18.46;34.30
42725;BME280;28369;44.046;23.014;2023-04-28T06:28:36;101654.78;;;17.25;33.61
42725;BME280;28369;44.046;23.014;2023-04-28T06:31:02;101784.09;;;19.16;33.60
42725;BME280;28369;44.046;23.014;2023-04-28T06:33:27;101762.19;;;19.74;32.92
42725;BME280;28369;44.046;23.014;2023-04-28T06:35:53;101656.91;;;18.22;33.33
42725;BME280;28369;44.046;23.014;2023-04-28T06:38:18;101702.59;;;18.79;33.38
42725;BME280;28369;44.046;23.014;2023-04-28T06:40:44;101691.25;;;18.33;33.56
42725;BME280;28369;44.046;23.014;2023-04-28T06:43:10;101805.50;;;19.33;32.82
42725;BME280;28369;44.046;23.014;2023-04-28T06:45:36;101550.84;;;17.47;32.89
42725;BME280;28369;44.046;23.014;2023-04-28T06:48:01;101683.19;;;19.30;33.77
42725;BME280;28369;44.046;23.014;2023-04-28T06:50:27;101770.09;;;18.88;32.16
42725;BME280;28369;44.046;23.014;2023-04-28T06:52:52;101663.84;;;19.20;31.91
42725;BME280;28369;44.046;23.014;2023-04-28T06:55:18;101664.81;;;19.19;29.43
42725;BME280;28369;44.046;23.014;2023-04-28T06:57:44;101755.25;;;19.46;27.83
42725;BME280;28369;44.046;23.014;2023-04-28T07:00:10;101729.06;;;19.84;27.57
42725;BME280;28369;44.046;23.014;2023-04-28T07:02:36;101790.94;;;19.88;27.59
42725;BME280;28369;44.046;23.014;2023-04-28T07:05:02;101763.31;;;20.38;28.45
42725;BME280;28369;44.046;23.014;2023-04-28T07:07:28;101750.13;;;20.04;27.52
42725;BME280;28369;44.046;23.014;2023-04-28T07:09:54;101718.75;;;20.47;26.20
42725;BME280;28369;44.046;23.014;2023-04-28T07:12:20;101758.97;;;20.95;28.13
42725;BME280;28369;44.046;23.014;2023-04-28T07:14:46;101768.50;;;20.40;26.09
42725;BME280;28369;44.046;23.014;2023-04-28T07:17:12;101763.50;;;20.86;25.94
42725;BME280;28369;44.046;23.014;2023-04-28T07:19:37;101813.59;;;21.65;27.43
42725;BME280;28369;44.046;23.014;2023-04-28T07:22:03;101575.09;;;20.26;27.33
42725;BME280;28369;44.046;23.014;2023-04-28T07:24:28;101771.91;;;21.79;26.32
42725;BME280;28369;44.046;23.014;2023-04-28T07:26:55;101701.88;;;21.28;25.82
42725;BME280;28369;44.046;23.014;2023-04-28T07:29:21;101755.94;;;21.46;26.50
42725;BME280;28369;44.046;23.014;2023-04-28T07:31:46;101755.69;;;21.33;29.04
42725;BME280;28369;44.046;23.014;2023-04-28T07:34:12;101514.88;;;20.24;27.18
42725;BME280;28369;44.046;23.014;2023-04-28T07:36:37;101741.09;;;20.96;26.88
42725;BME280;28369;44.046;23.014;2023-04-28T07:39:03;101584.59;;;19.55;27.54
42725;BME280;28369;44.046;23.014;2023-04-28T07:41:28;101545.94;;;19.67;27.99
42725;BME280;28369;44.046;23.014;2023-04-28T07:43:54;101662.13;;;20.85;27.48
42725;BME280;28369;44.046;23.014;2023-04-28T07:46:19;101792.16;;;21.73;29.25
42725;BME280;28369;44.046;23.014;2023-04-28T07:48:45;101746.47;;;21.44;28.79
42725;BME280;28369;44.046;23.014;2023-04-28T07:51:10;101790.31;;;21.74;27.55
42725;BME280;28369;44.046;23.014;2023-04-28T07:53:36;101758.56;;;21.71;27.24
42725;BME280;28369;44.046;23.014;2023-04-28T07:56:02;101802.88;;;22.28;28.00
42725;BME280;28369;44.046;23.014;2023-04-28T07:58:27;101823.25;;;22.60;27.68
42725;BME280;28369;44.046;23.014;2023-04-28T08:00:53;101733.69;;;22.55;28.13
42725;BME280;28369;44.046;23.014;2023-04-28T08:03:18;101818.69;;;23.22;27.91
42725;BME280;28369;44.046;23.014;2023-04-28T08:05:44;101702.31;;;22.02;26.87
42725;BME280;28369;44.046;23.014;2023-04-28T08:08:09;101791.59;;;21.86;28.34
42725;BME280;28369;44.046;23.014;2023-04-28T08:10:35;101790.00;;;21.69;27.56
42725;BME280;28369;44.046;23.014;2023-04-28T08:13:02;101809.56;;;22.55;27.72
42725;BME280;28369;44.046;23.014;2023-04-28T08:15:27;101124.34;;;18.41;26.56
42725;BME280;28369;44.046;23.014;2023-04-28T08:17:53;101739.31;;;22.22;27.50
42725;BME280;28369;44.046;23.014;2023-04-28T08:20:18;101627.53;;;21.54;27.01
42725;BME280;28369;44.046;23.014;2023-04-28T08:22:45;101552.84;;;20.90;28.47
42725;BME280;28369;44.046;23.014;2023-04-28T08:25:10;101794.50;;;22.92;27.25
42725;BME280;28369;44.046;23.014;2023-04-28T08:27:36;101736.16;;;22.94;28.01
42725;BME280;28369;44.046;23.014;2023-04-28T08:30:07;101528.94;;;21.51;26.62
42725;BME280;28369;44.046;23.014;2023-04-28T08:32:36;101735.56;;;23.22;26.94
42725;BME280;28369;44.046;23.014;2023-04-28T08:35:02;101653.88;;;22.80;25.52
42725;BME280;28369;44.046;23.014;2023-04-28T08:37:27;101625.81;;;22.23;25.89
42725;BME280;28369;44.046;23.014;2023-04-28T08:39:53;101779.03;;;22.41;27.73
42725;BME280;28369;44.046;23.014;2023-04-28T08:42:28;101795.09;;;23.18;28.04
42725;BME280;28369;44.046;23.014;2023-04-28T08:44:56;101772.63;;;22.51;27.44
42725;BME280;28369;44.046;23.014;2023-04-28T08:47:34;101728.53;;;22.53;26.56
42725;BME280;28369;44.046;23.014;2023-04-28T08:50:05;101781.94;;;23.08;27.04
42725;BME280;28369;44.046;23.014;2023-04-28T08:52:32;101758.59;;;23.17;27.11
42725;BME280;28369;44.046;23.014;2023-04-28T08:54:59;101722.19;;;23.29;28.22
42725;BME280;28369;44.046;23.014;2023-04-28T08:57:26;101780.75;;;23.55;26.56
42725;BME280;28369;44.046;23.014;2023-04-28T08:59:55;101776.66;;;23.00;27.09
42725;BME280;28369;44.046;23.014;2023-04-28T09:02:21;101599.19;;;21.68;26.72
42725;BME280;28369;44.046;23.014;2023-04-28T09:04:46;101716.47;;;21.88;26.08
42725;BME280;28369;44.046;23.014;2023-04-28T09:07:12;101798.00;;;21.21;26.96
42725;BME280;28369;44.046;23.014;2023-04-28T09:09:39;101736.88;;;21.57;26.86
42725;BME280;28369;44.046;23.014;2023-04-28T09:12:06;101602.22;;;20.71;25.83
42725;BME280;28369;44.046;23.014;2023-04-28T09:14:33;101731.47;;;21.26;26.30
42725;BME280;28369;44.046;23.014;2023-04-28T09:17:00;101584.47;;;21.41;26.83
42725;BME280;28369;44.046;23.014;2023-04-28T09:19:36;101593.34;;;21.10;26.47
42725;BME280;28369;44.046;23.014;2023-04-28T09:22:02;101634.75;;;21.77;26.46
42725;BME280;28369;44.046;23.014;2023-04-28T09:26:56;101693.50;;;22.17;27.58
42725;BME280;28369;44.046;23.014;2023-04-28T09:29:21;101770.94;;;23.62;26.28
42725;BME280;28369;44.046;23.014;2023-04-28T09:31:47;101602.91;;;22.43;25.92
42725;BME280;28369;44.046;23.014;2023-04-28T09:34:12;101707.91;;;23.58;26.45
42725;BME280;28369;44.046;23.014;2023-04-28T09:36:38;101699.59;;;23.75;24.63
42725;BME280;28369;44.046;23.014;2023-04-28T09:39:05;101702.91;;;24.13;23.73
42725;BME280;28369;44.046;23.014;2023-04-28T09:41:46;101725.22;;;24.14;25.54
42725;BME280;28369;44.046;23.014;2023-04-28T09:44:16;101683.13;;;24.21;25.44
42725;BME280;28369;44.046;23.014;2023-04-28T09:46:48;101673.88;;;24.24;24.85
42725;BME280;28369;44.046;23.014;2023-04-28T09:49:14;101673.94;;;24.09;24.08
42725;BME280;28369;44.046;23.014;2023-04-28T09:51:39;101723.75;;;24.11;22.95
42725;BME280;28369;44.046;23.014;2023-04-28T09:54:06;101678.41;;;23.43;22.93
42725;BME280;28369;44.046;23.014;2023-04-28T09:56:44;101693.47;;;23.59;22.55
42725;BME280;28369;44.046;23.014;2023-04-28T09:59:12;101732.00;;;23.88;24.00
42725;BME280;28369;44.046;23.014;2023-04-28T10:01:39;101734.63;;;24.53;24.32
42725;BME280;28369;44.046;23.014;2023-04-28T10:04:05;101731.72;;;24.26;24.96
42725;BME280;28369;44.046;23.014;2023-04-28T10:06:34;101715.97;;;23.80;23.95
42725;BME280;28369;44.046;23.014;2023-04-28T10:09:02;101660.97;;;23.33;25.27
42725;BME280;28369;44.046;23.014;2023-04-28T10:14:52;101686.75;;;23.70;24.08
42725;BME280;28369;44.046;23.014;2023-04-28T10:17:22;101702.38;;;23.81;24.07
42725;BME280;28369;44.046;23.014;2023-04-28T10:19:52;101586.25;;;22.78;24.19
42725;BME280;28369;44.046;23.014;2023-04-28T10:25:41;101638.91;;;23.74;25.98
42725;BME280;28369;44.046;23.014;2023-04-28T10:31:31;101522.34;;;23.61;25.04
42725;BME280;28369;44.046;23.014;2023-04-28T10:34:21;101675.91;;;24.50;23.11
42725;BME280;28369;44.046;23.014;2023-04-28T10:36:50;101637.66;;;23.91;24.09
42725;BME280;28369;44.046;23.014;2023-04-28T10:39:17;101606.41;;;24.12;24.26
42725;BME280;28369;44.046;23.014;2023-04-28T10:41:45;101571.63;;;23.54;24.78
42725;BME280;28369;44.046;23.014;2023-04-28T10:52:50;101615.47;;;24.39;24.78
42725;BME280;28369;44.046;23.014;2023-04-28T10:55:26;101634.00;;;24.27;24.73
42725;BME280;28369;44.046;23.014;2023-04-28T11:00:44;101622.94;;;23.87;23.90
42725;BME280;28369;44.046;23.014;2023-04-28T11:06:41;101579.59;;;23.90;23.74
42725;BME280;28369;44.046;23.014;2023-04-28T11:12:30;101584.56;;;23.72;24.68
42725;BME280;28369;44.046;23.014;2023-04-28T11:18:20;101577.19;;;24.30;23.12
42725;BME280;28369;44.046;23.014;2023-04-28T11:27:38;101531.34;;;24.74;24.31
42725;BME280;28369;44.046;23.014;2023-04-28T11:30:18;101577.13;;;25.00;23.12
42725;BME280;28369;44.046;23.014;2023-04-28T11:32:48;101601.13;;;24.95;22.27
42725;BME280;28369;44.046;23.014;2023-04-28T11:35:14;101585.69;;;24.34;24.62
42725;BME280;28369;44.046;23.014;2023-04-28T11:37:40;101567.06;;;24.61;22.17
42725;BME280;28369;44.046;23.014;2023-04-28T11:40:17;101549.63;;;24.57;22.50
42725;BME280;28369;44.046;23.014;2023-04-28T11:46:07;101572.59;;;24.24;22.92
42725;BME280;28369;44.046;23.014;2023-04-28T11:52:06;101591.41;;;24.59;24.05
42725;BME280;28369;44.046;23.014;2023-04-28T11:58:19;101596.19;;;25.06;23.33
42725;BME280;28369;44.046;23.014;2023-04-28T12:04:11;101587.53;;;25.17;24.40
42725;BME280;28369;44.046;23.014;2023-04-28T12:06:37;101535.31;;;24.91;23.11
42725;BME280;28369;44.046;23.014;2023-04-28T12:09:17;101502.28;;;24.56;22.00
42725;BME280;28369;44.046;23.014;2023-04-28T12:11:56;101572.28;;;25.44;23.32
42725;BME280;28369;44.046;23.014;2023-04-28T12:14:22;101514.63;;;24.85;22.81
42725;BME280;28369;44.046;23.014;2023-04-28T12:16:48;101543.75;;;24.81;22.32
42725;BME280;28369;44.046;23.014;2023-04-28T12:19:15;101538.03;;;25.05;22.67
42725;BME280;28369;44.046;23.014;2023-04-28T12:21:42;101448.66;;;24.34;22.23
42725;BME280;28369;44.046;23.014;2023-04-28T12:24:16;101551.78;;;24.68;23.03
42725;BME280;28369;44.046;23.014;2023-04-28T12:29:52;101529.63;;;24.24;22.34
42725;BME280;28369;44.046;23.014;2023-04-28T12:32:18;101528.91;;;24.44;23.26
42725;BME280;28369;44.046;23.014;2023-04-28T12:34:45;101560.72;;;24.75;22.21
42725;BME280;28369;44.046;23.014;2023-04-28T12:37:11;101536.31;;;24.83;24.79
42725;BME280;28369;44.046;23.014;2023-04-28T12:39:39;101549.41;;;25.00;22.27
42725;BME280;28369;44.046;23.014;2023-04-28T12:42:05;101544.38;;;24.77;22.20
42725;BME280;28369;44.046;23.014;2023-04-28T12:44:33;101441.16;;;23.53;23.41
42725;BME280;28369;44.046;23.014;2023-04-28T12:47:06;101538.00;;;23.36;23.54
42725;BME280;28369;44.046;23.014;2023-04-28T12:49:35;101430.63;;;22.65;22.23
42725;BME280;28369;44.046;23.014;2023-04-28T12:52:02;101511.91;;;24.37;22.29
42725;BME280;28369;44.046;23.014;2023-04-28T12:54:28;101431.09;;;23.90;22.94
42725;BME280;28369;44.046;23.014;2023-04-28T12:56:53;101505.78;;;24.49;22.76
42725;BME280;28369;44.046;23.014;2023-04-28T12:59:20;101441.00;;;24.31;22.68
42725;BME280;28369;44.046;23.014;2023-04-28T13:01:46;101496.63;;;24.37;21.92
42725;BME280;28369;44.046;23.014;2023-04-28T13:04:12;101484.56;;;24.61;21.91
42725;BME280;28369;44.046;23.014;2023-04-28T13:06:38;101498.53;;;25.05;21.73
42725;BME280;28369;44.046;23.014;2023-04-28T13:09:04;101299.19;;;23.64;22.80
42725;BME280;28369;44.046;23.014;2023-04-28T13:11:30;101509.97;;;25.67;22.28
42725;BME280;28369;44.046;23.014;2023-04-28T13:13:56;101502.66;;;25.95;21.97
42725;BME280;28369;44.046;23.014;2023-04-28T13:16:22;101423.44;;;23.87;22.97
42725;BME280;28369;44.046;23.014;2023-04-28T13:18:49;101438.81;;;24.48;22.27
42725;BME280;28369;44.046;23.014;2023-04-28T13:21:16;101387.50;;;23.88;21.91
42725;BME280;28369;44.046;23.014;2023-04-28T13:23:43;101461.66;;;23.89;23.63
42725;BME280;28369;44.046;23.014;2023-04-28T13:26:09;101427.50;;;24.11;22.47
42725;BME280;28369;44.046;23.014;2023-04-28T13:28:35;101409.72;;;24.10;23.50
42725;BME280;28369;44.046;23.014;2023-04-28T13:31:29;101466.63;;;25.02;23.13
42725;BME280;28369;44.046;23.014;2023-04-28T13:33:55;101446.84;;;24.41;22.52
42725;BME280;28369;44.046;23.014;2023-04-28T13:36:21;101387.06;;;24.39;23.05